createdAt,value
2023-01-03T00:02:53.650Z,80.95
2023-01-03T00:06:01.035Z,81.37
2023-01-03T00:09:06.603Z,32.28
2023-01-03T00:12:31.275Z,41.92
2023-01-03T00:15:30.869Z,28.73
2023-01-03T00:18:23.362Z,50.10
2023-01-03T00:21:29.132Z,29.77
2023-01-03T00:24:35.117Z,25.05
2023-01-03T00:27:40.612Z,21.33
2023-01-03T00:30:46.119Z,24.07
2023-01-03T00:33:53.614Z,38.83
2023-01-03T00:36:59.730Z,28.47
2023-01-03T00:40:05.964Z,23.40
2023-01-03T00:43:30.316Z,23.10
2023-01-03T00:46:37.086Z,29.87
2023-01-03T00:49:42.252Z,20.57
2023-01-03T00:52:48.815Z,18.17
2023-01-03T00:55:55.246Z,25.10
2023-01-03T00:59:00.950Z,18.35
2023-01-03T01:02:11.729Z,16.32
2023-01-03T01:05:18.054Z,18.23
2023-01-03T01:08:25.090Z,18.98
2023-01-03T01:11:31.587Z,15.03
2023-01-03T01:14:39.763Z,14.83
2023-01-03T01:17:45.567Z,18.45
2023-01-03T01:20:53.489Z,26.65
2023-01-03T01:23:58.691Z,38.17
2023-01-03T01:27:05.671Z,18.57
2023-01-03T01:30:04.146Z,17.67
2023-01-03T01:33:10.312Z,28.95
2023-01-03T01:36:24.932Z,16.87
2023-01-03T01:39:34.477Z,32.17
2023-01-03T01:46:03.368Z,22.07
2023-01-03T01:49:18.249Z,15.08
2023-01-03T01:52:24.504Z,16.35
2023-01-03T01:55:36.791Z,14.10
2023-01-03T01:58:47.320Z,18.15
2023-01-03T02:04:58.430Z,14.20
2023-01-03T02:08:05.944Z,18.52
2023-01-03T02:11:33.333Z,13.13
2023-01-03T02:14:51.972Z,13.62
2023-01-03T02:18:08.950Z,15.93
2023-01-03T02:21:31.010Z,15.25
2023-01-03T02:25:18.798Z,18.25
2023-01-03T02:28:44.153Z,16.37
2023-01-03T02:32:13.615Z,15.28
2023-01-03T02:35:35.548Z,15.00
2023-01-03T02:39:01.835Z,13.00
2023-01-03T02:42:38.327Z,14.95
2023-01-03T02:45:56.025Z,17.27
2023-01-03T02:49:24.026Z,13.55
2023-01-03T02:52:39.442Z,15.50
2023-01-03T02:55:46.466Z,13.68
2023-01-03T02:58:52.664Z,13.85
2023-01-03T03:01:58.536Z,14.33
2023-01-03T03:05:07.201Z,16.67
2023-01-03T03:08:13.112Z,11.63
2023-01-03T03:11:36.547Z,14.18
2023-01-03T03:14:57.775Z,12.37
2023-01-03T03:18:06.201Z,14.07
2023-01-03T03:21:29.116Z,9.30
2023-01-03T03:24:58.776Z,12.55
2023-01-03T03:28:24.074Z,11.75
2023-01-03T03:31:48.177Z,12.98
2023-01-03T03:34:54.890Z,11.75
2023-01-03T03:38:02.338Z,20.15
2023-01-03T03:41:52.075Z,11.55
2023-01-03T03:45:08.150Z,14.90
2023-01-03T03:48:24.576Z,16.73
2023-01-03T03:51:30.015Z,11.08
2023-01-03T03:54:35.761Z,14.70
2023-01-03T03:57:57.420Z,11.25
2023-01-03T04:01:03.611Z,16.80
2023-01-03T04:04:10.244Z,15.10
2023-01-03T04:07:15.774Z,10.50
2023-01-03T04:10:24.646Z,14.58
2023-01-03T04:13:30.821Z,12.70
2023-01-03T04:16:35.969Z,13.40
2023-01-03T04:19:40.925Z,16.65
2023-01-03T04:22:46.875Z,13.85
2023-01-03T04:25:52.900Z,12.23
2023-01-03T04:28:58.955Z,15.53
2023-01-03T04:32:04.974Z,14.03
2023-01-03T04:35:11.151Z,26.95
2023-01-03T04:38:17.734Z,19.85
2023-01-03T04:41:24.056Z,16.25
2023-01-03T04:44:30.361Z,16.32
2023-01-03T04:47:35.856Z,11.88
2023-01-03T04:50:41.639Z,18.00
2023-01-03T04:53:46.909Z,18.27
2023-01-03T04:56:53.342Z,17.73
2023-01-03T05:00:00.580Z,36.93
2023-01-03T05:03:07.294Z,48.60
2023-01-03T05:06:17.104Z,20.77
2023-01-03T05:09:23.005Z,18.37
2023-01-03T05:12:28.322Z,21.30
2023-01-03T05:15:33.318Z,17.37
2023-01-03T05:18:39.186Z,18.48
2023-01-03T05:22:03.138Z,21.33
2023-01-03T05:25:26.752Z,21.33
2023-01-03T05:28:36.423Z,20.80
2023-01-03T05:31:41.586Z,20.27
2023-01-03T05:34:47.630Z,30.70
2023-01-03T05:37:53.810Z,24.67
2023-01-03T05:41:00.963Z,24.55
2023-01-03T05:44:05.680Z,24.82
2023-01-03T05:47:12.211Z,25.80
2023-01-03T05:50:17.521Z,23.40
2023-01-03T05:53:25.209Z,22.13
2023-01-03T05:56:30.895Z,26.97
2023-01-03T05:59:36.641Z,22.73
2023-01-03T06:02:42.967Z,21.93
2023-01-03T06:05:50.325Z,25.60
2023-01-03T06:08:55.454Z,27.77
2023-01-03T06:12:02.571Z,28.12
2023-01-03T06:15:08.608Z,27.70
2023-01-03T06:18:14.982Z,30.52
2023-01-03T06:21:20.151Z,22.30
2023-01-03T06:24:26.019Z,25.12
2023-01-03T06:27:31.955Z,22.58
2023-01-03T06:30:38.282Z,27.30
2023-01-03T06:33:45.133Z,26.25
2023-01-03T06:36:50.483Z,25.20
2023-01-03T06:39:56.719Z,33.05
2023-01-03T06:42:56.537Z,28.77
2023-01-03T06:46:06.728Z,26.40
2023-01-03T06:49:30.470Z,31.10
2023-01-03T06:52:53.305Z,29.92
2023-01-03T06:55:59.614Z,30.92
2023-01-03T06:59:04.575Z,28.45
2023-01-03T07:02:11.100Z,34.23
2023-01-03T07:05:17.195Z,29.72
2023-01-03T07:08:22.947Z,26.45
2023-01-03T07:11:29.977Z,27.15
2023-01-03T07:14:35.939Z,31.62
2023-01-03T07:17:41.029Z,29.98
2023-01-03T07:20:46.077Z,26.30
2023-01-03T07:23:51.936Z,39.35
2023-01-03T07:27:17.140Z,31.15
2023-01-03T07:30:23.417Z,29.82
2023-01-03T07:33:29.023Z,28.62
2023-01-03T07:36:35.393Z,27.90
2023-01-03T07:39:40.285Z,29.27
2023-01-03T07:43:04.993Z,29.57
2023-01-03T07:46:09.698Z,25.27
2023-01-03T07:49:15.122Z,31.93
2023-01-03T07:52:20.995Z,27.95
2023-01-03T07:55:27.008Z,36.03
2023-01-03T07:58:33.096Z,37.63
2023-01-03T08:01:39.692Z,32.50
2023-01-03T08:04:38.908Z,31.77
2023-01-03T08:11:08.250Z,33.53
2023-01-03T08:14:14.304Z,32.55
2023-01-03T08:17:20.197Z,29.00
2023-01-03T08:20:26.110Z,32.33
2023-01-03T08:23:32.275Z,30.80
2023-01-03T08:26:39.426Z,27.58
2023-01-03T08:29:45.289Z,29.02
2023-01-03T08:32:51.736Z,32.42
2023-01-03T08:36:01.965Z,26.30
2023-01-03T08:39:11.549Z,28.52
2023-01-03T08:42:19.189Z,29.82
2023-01-03T08:45:26.906Z,31.77
2023-01-03T08:48:33.737Z,32.58
2023-01-03T08:51:38.489Z,32.33
2023-01-03T08:54:46.245Z,29.85
2023-01-03T08:57:52.863Z,25.35
2023-01-03T09:04:24.096Z,25.35
2023-01-03T09:07:32.089Z,24.95
2023-01-03T09:10:42.199Z,23.70
2023-01-03T09:13:45.419Z,25.75
2023-01-03T09:16:50.564Z,24.15
2023-01-03T09:19:55.851Z,26.52
2023-01-03T09:23:01.477Z,26.45
2023-01-03T09:26:07.643Z,28.77
2023-01-03T09:29:12.780Z,25.27
2023-01-03T09:32:18.903Z,25.77
2023-01-03T09:35:24.610Z,26.73
2023-01-03T09:38:30.533Z,27.17
2023-01-03T09:41:42.231Z,26.27
2023-01-03T09:44:48.729Z,29.48
2023-01-03T09:47:54.268Z,28.62
2023-01-03T09:51:21.241Z,29.63
2023-01-03T09:54:27.736Z,24.52
2023-01-03T09:58:00.135Z,24.37
2023-01-03T10:01:23.113Z,24.72
2023-01-03T10:05:01.439Z,19.60
2023-01-03T10:08:34.483Z,21.40
2023-01-03T10:11:48.545Z,21.23
2023-01-03T10:15:19.042Z,20.57
2023-01-03T10:18:36.081Z,20.70
2023-01-03T10:22:27.241Z,19.20
2023-01-03T10:25:36.736Z,24.95
2023-01-03T10:28:47.514Z,25.30
2023-01-03T10:32:26.024Z,21.35
2023-01-03T10:35:45.626Z,27.00
2023-01-03T10:38:53.439Z,22.83
2023-01-03T10:42:01.072Z,23.77
2023-01-03T10:45:26.333Z,23.22
2023-01-03T10:48:36.244Z,27.37
2023-01-03T10:51:58.841Z,21.52
2023-01-03T10:55:10.487Z,23.35
2023-01-03T10:58:20.109Z,30.12
2023-01-03T11:01:35.686Z,26.07
2023-01-03T11:04:43.086Z,23.20
2023-01-03T11:07:48.946Z,26.75
2023-01-03T11:11:13.483Z,26.48
2023-01-03T11:14:37.114Z,26.52
2023-01-03T11:17:43.190Z,25.97
2023-01-03T11:21:30.061Z,26.90
2023-01-03T11:24:43.366Z,32.98
2023-01-03T11:28:24.429Z,29.67
2023-01-03T11:31:55.288Z,33.65
2023-01-03T11:35:56.821Z,29.52
2023-01-03T11:39:24.686Z,30.75
2023-01-03T11:42:54.383Z,27.58
2023-01-03T11:46:07.871Z,23.38
2023-01-03T11:49:44.042Z,22.50
2023-01-03T11:53:06.741Z,21.70
2023-01-03T11:56:32.989Z,27.85
2023-01-03T12:00:05.918Z,31.23
2023-01-03T12:03:31.614Z,31.52
2023-01-03T12:07:37.020Z,30.32
2023-01-03T12:10:22.580Z,30.65
2023-01-03T12:13:38.077Z,29.27
2023-01-03T12:17:01.300Z,31.27
2023-01-03T12:20:18.247Z,29.52
2023-01-03T12:23:48.900Z,31.12
2023-01-03T12:26:57.319Z,26.75
2023-01-03T12:30:29.511Z,28.55
2023-01-03T12:34:04.262Z,32.78
2023-01-03T12:37:34.192Z,37.93
2023-01-03T12:41:07.959Z,30.15
2023-01-03T12:44:27.075Z,37.70
2023-01-03T12:47:55.462Z,35.15
2023-01-03T12:51:06.887Z,33.70
2023-01-03T12:54:43.272Z,36.73
2023-01-03T12:58:08.504Z,37.73
2023-01-03T13:01:22.615Z,36.95
2023-01-03T13:04:34.278Z,37.05
2023-01-03T13:07:44.169Z,39.13
2023-01-03T13:10:52.439Z,38.55
2023-01-03T13:14:19.812Z,41.50
2023-01-03T13:17:32.666Z,41.28
2023-01-03T13:20:50.257Z,39.88
2023-01-03T13:24:14.468Z,38.08
2023-01-03T13:27:37.707Z,39.48
2023-01-03T13:30:45.402Z,38.53
2023-01-03T13:34:00.153Z,34.78
2023-01-03T13:37:24.976Z,35.25
2023-01-03T13:41:16.586Z,39.67
2023-01-03T13:43:52.227Z,41.63
2023-01-03T13:46:58.933Z,39.18
2023-01-03T13:50:04.956Z,39.75
2023-01-03T13:53:25.428Z,41.13
2023-01-03T13:56:31.176Z,38.00
2023-01-03T13:59:50.947Z,47.57
2023-01-03T14:03:16.984Z,43.10
2023-01-03T14:06:56.372Z,44.85
2023-01-03T14:10:15.106Z,43.90
2023-01-03T14:13:29.772Z,37.00
2023-01-03T14:16:43.228Z,41.88
2023-01-03T14:19:54.258Z,45.67
2023-01-03T14:23:11.625Z,50.45
2023-01-03T14:26:08.593Z,46.10
2023-01-03T14:29:19.322Z,45.35
2023-01-03T14:32:44.522Z,51.92
2023-01-03T14:35:55.891Z,50.17
2023-01-03T14:39:06.661Z,49.58
2023-01-03T14:45:18.348Z,57.83
2023-01-03T14:48:28.259Z,47.40
2023-01-03T14:51:34.808Z,55.80
2023-01-03T14:54:40.962Z,44.73
2023-01-03T14:57:51.881Z,47.15
2023-01-03T15:00:59.657Z,52.88
2023-01-03T15:04:05.047Z,60.25
2023-01-03T15:07:16.836Z,54.30
2023-01-03T15:10:28.466Z,54.30
2023-01-03T15:13:47.013Z,50.25
2023-01-03T15:16:55.617Z,45.50
2023-01-03T15:20:09.300Z,49.27
2023-01-03T15:23:15.241Z,52.30
2023-01-03T15:26:22.110Z,48.73
2023-01-03T15:29:36.895Z,46.48
2023-01-03T15:32:42.166Z,47.62
2023-01-03T15:35:53.690Z,47.83
2023-01-03T15:39:00.348Z,40.48
2023-01-03T15:42:50.209Z,48.20
2023-01-03T15:45:40.869Z,42.33
2023-01-03T15:48:48.156Z,42.40
2023-01-03T15:51:54.727Z,43.52
2023-01-03T15:55:00.550Z,42.45
2023-01-03T15:58:06.085Z,39.48
2023-01-03T16:01:11.902Z,39.88
2023-01-03T16:04:19.327Z,44.38
2023-01-03T16:07:25.836Z,44.65
2023-01-03T16:10:31.724Z,40.58
2023-01-03T16:13:38.844Z,41.50
2023-01-03T16:16:48.056Z,44.70
2023-01-03T16:19:53.617Z,43.50
2023-01-03T16:23:03.351Z,39.53
2023-01-03T16:26:09.778Z,45.70
2023-01-03T16:29:15.603Z,39.70
2023-01-03T16:32:21.361Z,40.80
2023-01-03T16:35:34.017Z,42.45
2023-01-03T16:38:39.815Z,44.38
2023-01-03T16:41:45.468Z,43.45
2023-01-03T16:44:52.263Z,41.00
2023-01-03T16:47:57.595Z,47.17
2023-01-03T16:51:04.846Z,39.55
2023-01-03T16:54:12.019Z,48.00
2023-01-03T16:57:17.447Z,44.53
2023-01-03T17:00:31.617Z,40.60
2023-01-03T17:03:41.754Z,44.50
2023-01-03T17:06:46.049Z,53.38
2023-01-03T17:09:51.443Z,43.75
2023-01-03T17:12:57.427Z,43.48
2023-01-03T17:16:03.965Z,39.75
2023-01-03T17:19:09.385Z,41.08
2023-01-03T17:22:16.813Z,43.38
2023-01-03T17:25:24.379Z,44.38
2023-01-03T17:28:29.939Z,37.98
2023-01-03T17:31:38.085Z,38.55
2023-01-03T17:34:45.410Z,37.80
2023-01-03T17:38:23.991Z,37.00
2023-01-03T17:41:04.273Z,42.48
2023-01-03T17:44:09.817Z,36.05
2023-01-03T17:47:54.324Z,35.98
2023-01-03T17:51:00.317Z,34.88
2023-01-03T17:54:05.709Z,40.15
2023-01-03T17:57:14.223Z,38.08
2023-01-03T18:00:34.405Z,39.98
2023-01-03T18:03:40.450Z,39.60
2023-01-03T18:06:47.773Z,44.33
2023-01-03T18:09:53.195Z,35.58
2023-01-03T18:12:58.258Z,38.53
2023-01-03T18:16:03.430Z,42.05
2023-01-03T18:19:08.253Z,40.83
2023-01-03T18:22:13.584Z,40.67
2023-01-03T18:25:23.187Z,38.50
2023-01-03T18:28:28.585Z,42.13
2023-01-03T18:31:34.759Z,36.75
2023-01-03T18:34:40.137Z,41.18
2023-01-03T18:37:48.889Z,40.90
2023-01-03T18:41:00.703Z,40.33
2023-01-03T18:44:03.376Z,36.73
2023-01-03T18:47:09.525Z,43.75
2023-01-03T18:50:15.771Z,46.98
2023-01-03T18:53:22.775Z,36.98
2023-01-03T18:56:41.885Z,46.50
2023-01-03T18:59:47.208Z,44.05
2023-01-03T19:02:53.845Z,39.53
2023-01-03T19:06:02.627Z,36.20
2023-01-03T19:09:08.876Z,32.70
2023-01-03T19:12:15.692Z,31.23
2023-01-03T19:15:41.523Z,33.58
2023-01-03T19:18:47.512Z,32.20
2023-01-03T19:21:55.823Z,33.10
2023-01-03T19:25:01.251Z,35.00
2023-01-03T19:28:06.800Z,37.08
2023-01-03T19:31:11.918Z,36.28
2023-01-03T19:34:18.590Z,36.68
2023-01-03T19:37:24.809Z,33.65
2023-01-03T19:40:30.900Z,39.85
2023-01-03T19:43:36.788Z,40.20
2023-01-03T19:46:42.555Z,40.85
2023-01-03T19:49:50.392Z,43.98
2023-01-03T19:52:56.961Z,45.43
2023-01-03T19:56:03.828Z,39.40
2023-01-03T19:59:09.924Z,45.33
2023-01-03T20:02:30.939Z,39.03
2023-01-03T20:05:37.844Z,42.08
2023-01-03T20:08:43.075Z,47.00
2023-01-03T20:11:49.082Z,39.25
2023-01-03T20:14:55.065Z,40.40
2023-01-03T20:18:00.804Z,35.33
2023-01-03T20:21:09.340Z,43.68
2023-01-03T20:24:16.419Z,39.08
2023-01-03T20:27:27.246Z,42.48
2023-01-03T20:30:33.908Z,44.25
2023-01-03T20:33:40.501Z,37.85
2023-01-03T20:36:58.518Z,36.65
2023-01-03T20:40:03.808Z,49.38
2023-01-03T20:43:10.822Z,34.85
2023-01-03T20:46:17.842Z,41.60
2023-01-03T20:49:33.986Z,39.30
2023-01-03T20:52:40.237Z,39.45
2023-01-03T20:55:45.344Z,44.10
2023-01-03T20:58:51.817Z,38.92
2023-01-03T21:01:59.605Z,35.68
2023-01-03T21:05:05.356Z,32.03
2023-01-03T21:08:28.732Z,32.55
2023-01-03T21:11:40.433Z,42.53
2023-01-03T21:14:46.314Z,36.48
2023-01-03T21:17:52.691Z,35.25
2023-01-03T21:20:59.217Z,32.40
2023-01-03T21:24:06.326Z,38.45
2023-01-03T21:27:11.919Z,40.30
2023-01-03T21:30:17.277Z,35.73
2023-01-03T21:33:28.704Z,34.27
2023-01-03T21:36:47.662Z,36.23
2023-01-03T21:39:53.175Z,31.73
2023-01-03T21:43:12.307Z,38.30
2023-01-03T21:46:21.331Z,30.82
2023-01-03T21:49:26.821Z,36.58
2023-01-03T21:52:35.280Z,32.28
2023-01-03T21:55:41.487Z,32.17
2023-01-03T21:58:47.155Z,33.48
2023-01-03T22:02:11.542Z,31.68
2023-01-03T22:05:18.116Z,28.12
2023-01-03T22:08:24.758Z,27.85
2023-01-03T22:11:31.771Z,29.50
2023-01-03T22:14:36.335Z,29.67
2023-01-03T22:17:42.749Z,26.80
2023-01-03T22:20:49.393Z,28.80
2023-01-03T22:23:54.766Z,29.70
2023-01-03T22:27:01.897Z,24.02
2023-01-03T22:30:08.442Z,28.40
2023-01-03T22:33:13.470Z,30.17
2023-01-03T22:36:19.828Z,30.57
2023-01-03T22:39:25.259Z,27.87
2023-01-03T22:42:31.934Z,26.02
2023-01-03T22:45:36.920Z,27.85
2023-01-03T22:48:43.215Z,26.57
2023-01-03T22:51:48.776Z,30.27
2023-01-03T22:54:54.613Z,26.25
2023-01-03T22:58:00.743Z,24.72
2023-01-03T23:01:07.159Z,28.00
2023-01-03T23:04:14.884Z,26.55
2023-01-03T23:07:21.345Z,26.70
2023-01-03T23:10:27.743Z,22.52
2023-01-03T23:13:32.886Z,28.10
2023-01-03T23:16:39.659Z,25.97
2023-01-03T23:19:45.821Z,23.65
2023-01-03T23:22:57.480Z,26.65
2023-01-03T23:25:59.053Z,26.35
2023-01-03T23:29:10.517Z,30.00
2023-01-03T23:32:16.648Z,25.20
2023-01-03T23:35:25.069Z,26.40
2023-01-03T23:38:30.835Z,27.62
2023-01-03T23:41:36.083Z,23.70
2023-01-03T23:44:41.879Z,26.57
2023-01-03T23:47:48.075Z,25.37
2023-01-03T23:50:54.447Z,25.65
2023-01-03T23:54:00.435Z,25.32
2023-01-03T23:57:06.791Z,25.45
